Time;durP1;ratioP1;P1;durP2;ratioP2;P2;SDS_P1;SDS_P2;PMS_P1;PMS_P2;Temp;Humidity;BMP_temperature;BMP_pressure;BME280_temperature;BME280_humidity;BME280_pressure;Samples;Min_cycle;Max_cycle;Signal;HPM_P1;HPM_P2
2023/10/10 00:02:47;;;;;;;48.90;20.13;;;6.70;99.90;;;;;;4417381;28;655818;-67
2023/10/10 00:05:35;;;;;;;94.23;29.27;;;6.70;99.90;;;;;;4415328;28;656327;-66
2023/10/10 00:08:28;;;;;;;44.03;19.53;;;6.80;99.90;;;;;;4422022;28;655644;-66
2023/10/10 00:11:18;;;;;;;61.72;24.20;;;6.80;99.90;;;;;;4421182;28;655697;-67
2023/10/10 00:14:15;;;;;;;83.00;32.57;;;6.80;99.90;;;;;;4411979;28;655708;-67
2023/10/10 00:17:02;;;;;;;75.67;25.47;;;6.80;99.90;;;;;;4418710;28;655843;-66
2023/10/10 00:19:52;;;;;;;155.83;49.23;;;6.80;99.90;;;;;;4418250;28;656069;-67
2023/10/10 00:22:43;;;;;;;49.37;22.53;;;6.80;99.90;;;;;;4419144;28;657684;-67
2023/10/10 00:25:31;;;;;;;54.03;25.97;;;6.70;99.90;;;;;;4417404;28;655877;-67
2023/10/10 00:28:20;;;;;;;67.27;30.40;;;6.70;99.90;;;;;;4423590;28;655334;-67
2023/10/10 00:31:10;;;;;;;59.70;27.73;;;6.70;99.90;;;;;;4424563;28;655099;-66
2023/10/10 00:33:58;;;;;;;50.27;25.87;;;6.70;99.90;;;;;;4443368;28;656304;-66
2023/10/10 00:36:50;;;;;;;44.37;23.70;;;6.70;99.90;;;;;;4445471;28;655781;-67
2023/10/10 00:39:38;;;;;;;45.05;24.13;;;6.80;99.90;;;;;;4407319;28;655463;-67
2023/10/10 00:42:36;;;;;;;42.57;23.30;;;6.90;99.90;;;;;;4437169;28;656819;-66
2023/10/10 00:45:28;;;;;;;49.13;24.93;;;6.90;99.90;;;;;;4416366;28;655905;-66
2023/10/10 00:48:21;;;;;;;56.28;25.30;;;6.90;99.90;;;;;;4417583;28;656253;-66
2023/10/10 00:51:10;;;;;;;55.73;27.70;;;6.90;99.90;;;;;;4418416;28;655495;-67
2023/10/10 00:54:11;;;;;;;60.50;29.40;;;6.90;99.90;;;;;;4426882;28;656144;-68
2023/10/10 00:56:59;;;;;;;48.70;23.13;;;6.80;99.90;;;;;;4400314;28;655914;-67
2023/10/10 00:59:48;;;;;;;49.73;24.77;;;6.80;99.90;;;;;;4374755;28;655427;-68
2023/10/10 01:02:37;;;;;;;44.83;23.00;;;6.80;99.90;;;;;;4253376;28;655388;-67
2023/10/10 01:05:39;;;;;;;41.72;22.33;;;6.80;99.90;;;;;;4265702;28;656273;-68
2023/10/10 01:08:30;;;;;;;49.13;25.57;;;6.80;99.90;;;;;;4419432;28;655408;-66
2023/10/10 01:11:19;;;;;;;43.22;22.88;;;6.80;99.90;;;;;;4422007;28;655950;-67
2023/10/10 01:14:07;;;;;;;46.60;23.23;;;6.80;99.90;;;;;;4441572;28;655511;-66
2023/10/10 01:17:05;;;;;;;46.50;24.47;;;6.80;99.90;;;;;;4422567;28;656666;-67
2023/10/10 01:19:53;;;;;;;51.27;24.90;;;6.80;99.90;;;;;;4408951;28;655768;-67
2023/10/10 01:22:46;;;;;;;57.35;24.90;;;6.80;99.90;;;;;;4441716;28;655522;-67
2023/10/10 01:28:39;;;;;;;44.37;22.83;;;6.80;99.90;;;;;;4411301;28;655645;-66
2023/10/10 01:31:30;;;;;;;47.37;23.10;;;6.80;99.90;;;;;;4432064;28;655738;-66
2023/10/10 01:34:30;;;;;;;46.87;22.60;;;6.90;99.90;;;;;;4398940;28;656875;-69
2023/10/10 01:37:22;;;;;;;54.63;24.53;;;6.90;99.90;;;;;;4398011;28;656219;-68
2023/10/10 01:40:15;;;;;;;49.47;23.83;;;6.90;99.90;;;;;;4421154;28;656210;-69
2023/10/10 01:43:07;;;;;;;50.60;23.77;;;6.80;99.90;;;;;;4403304;28;655897;-69
2023/10/10 01:46:08;;;;;;;57.33;24.27;;;6.90;99.90;;;;;;4410832;28;656353;-69
2023/10/10 01:48:56;;;;;;;106.20;33.50;;;6.90;99.90;;;;;;4414196;28;656634;-68
2023/10/10 01:51:43;;;;;;;79.30;29.97;;;6.90;99.90;;;;;;4420403;28;656977;-69
2023/10/10 01:54:40;;;;;;;75.63;28.67;;;6.90;99.90;;;;;;4437828;28;656121;-69
2023/10/10 01:57:29;;;;;;;52.80;22.00;;;6.90;99.90;;;;;;4432428;28;655844;-69
2023/10/10 02:00:22;;;;;;;53.70;22.00;;;6.80;99.90;;;;;;4439699;28;655208;-68
2023/10/10 02:03:09;;;;;;;52.20;20.40;;;6.80;99.90;;;;;;4414220;28;655455;-68
2023/10/10 02:05:59;;;;;;;41.80;18.60;;;6.90;99.90;;;;;;4439724;28;655965;-68
2023/10/10 02:08:47;;;;;;;43.27;17.97;;;6.80;99.90;;;;;;4423187;28;655236;-69
2023/10/10 02:11:38;;;;;;;38.67;17.50;;;6.80;99.90;;;;;;4414931;28;655481;-68
2023/10/10 02:14:30;;;;;;;44.80;19.70;;;6.80;99.90;;;;;;4434311;28;656050;-69
2023/10/10 02:17:23;;;;;;;33.47;16.07;;;6.80;99.90;;;;;;4400029;28;655847;-68
2023/10/10 02:20:33;;;;;;;36.10;17.57;;;6.80;99.90;;;;;;4413875;28;655880;-69
2023/10/10 02:23:31;;;;;;;37.03;18.07;;;6.80;99.90;;;;;;4418314;28;656438;-69
2023/10/10 02:26:35;;;;;;;34.37;16.00;;;6.80;99.90;;;;;;4391705;28;655632;-69
2023/10/10 02:29:34;;;;;;;33.40;16.27;;;6.70;99.90;;;;;;4438641;28;655795;-69
2023/10/10 02:32:23;;;;;;;32.73;15.03;;;6.70;99.90;;;;;;4422928;28;655584;-69
2023/10/10 02:35:25;;;;;;;25.73;13.77;;;6.70;99.90;;;;;;4426253;28;655829;-68
2023/10/10 02:38:13;;;;;;;28.57;14.50;;;6.70;99.90;;;;;;4425654;28;655199;-69
2023/10/10 02:41:14;;;;;;;25.23;12.67;;;6.70;99.90;;;;;;4436921;28;656541;-69
2023/10/10 02:44:09;;;;;;;25.80;13.87;;;6.70;99.90;;;;;;4422236;28;655368;-69
2023/10/10 02:46:56;;;;;;;26.37;14.30;;;6.70;99.90;;;;;;4418312;28;656664;-69
2023/10/10 02:49:46;;;;;;;32.73;15.63;;;6.70;99.90;;;;;;4422457;28;656507;-69
2023/10/10 02:52:37;;;;;;;28.53;14.33;;;6.70;99.90;;;;;;4420181;28;655546;-69
2023/10/10 02:55:33;;;;;;;46.03;21.10;;;6.60;99.90;;;;;;4417402;28;656398;-69
2023/10/10 02:58:27;;;;;;;28.60;14.57;;;6.60;99.90;;;;;;4422717;28;656060;-69
2023/10/10 03:01:49;;;;;;;40.47;17.53;;;6.60;99.90;;;;;;4398515;28;656276;-69
2023/10/10 03:07:28;;;;;;;40.37;20.37;;;6.60;99.90;;;;;;4894103;27;131516;-67
2023/10/10 03:10:24;;;;;;;37.83;18.60;;;6.50;99.90;;;;;;4353088;28;652075;-67
2023/10/10 03:13:14;;;;;;;32.50;15.67;;;6.50;99.90;;;;;;4378746;28;651935;-67
2023/10/10 03:19:26;;;;;;;27.47;14.30;;;6.60;99.90;;;;;;4373649;28;652646;-67
2023/10/10 03:22:30;;;;;;;27.07;15.37;;;6.60;99.90;;;;;;4412734;28;651560;-67
2023/10/10 03:25:21;;;;;;;31.30;15.77;;;6.60;99.90;;;;;;4410125;28;652166;-67
2023/10/10 03:28:19;;;;;;;34.60;16.40;;;6.60;99.90;;;;;;4386409;28;653510;-67
2023/10/10 03:31:08;;;;;;;33.57;17.07;;;6.60;99.90;;;;;;4406887;28;652817;-67
2023/10/10 03:34:11;;;;;;;31.17;16.50;;;6.60;99.90;;;;;;4405808;28;653419;-67
2023/10/10 03:37:20;;;;;;;27.53;16.10;;;6.60;99.90;;;;;;4384514;28;654109;-67
2023/10/10 03:40:21;;;;;;;31.70;16.83;;;6.70;99.90;;;;;;4400191;28;654057;-67
2023/10/10 05:25:06;;;;;;;35.17;19.63;;;6.80;99.90;;;;;;4403097;28;653460;-69
2023/10/10 05:27:58;;;;;;;41.13;21.40;;;6.80;99.90;;;;;;4385447;28;653980;-69
2023/10/10 05:30:47;;;;;;;39.50;19.70;;;6.80;99.90;;;;;;4409431;28;654510;-69
2023/10/10 05:33:36;;;;;;;41.53;21.60;;;6.80;99.90;;;;;;4411124;28;654595;-70
2023/10/10 05:36:24;;;;;;;40.20;20.23;;;6.80;99.90;;;;;;4407111;28;653565;-70
2023/10/10 05:39:17;;;;;;;36.57;20.73;;;6.80;99.90;;;;;;4427916;28;654582;-70
2023/10/10 05:42:05;;;;;;;36.70;19.43;;;6.90;99.90;;;;;;4377688;28;653840;-70
2023/10/10 05:44:52;;;;;;;33.10;19.57;;;6.90;99.90;;;;;;4425823;28;653839;-70
2023/10/10 05:47:41;;;;;;;38.20;19.27;;;6.90;99.90;;;;;;4405378;28;653932;-69
2023/10/10 05:50:28;;;;;;;35.53;19.07;;;7.00;99.90;;;;;;4408644;28;653030;-70
2023/10/10 05:53:16;;;;;;;39.37;19.80;;;7.00;99.90;;;;;;4431422;28;653424;-70
2023/10/10 05:56:13;;;;;;;37.83;19.37;;;6.90;99.90;;;;;;4398397;28;654631;-69
2023/10/10 05:59:00;;;;;;;41.23;21.40;;;7.00;99.90;;;;;;4404136;28;654827;-70
2023/10/10 06:01:48;;;;;;;40.30;20.77;;;7.10;99.90;;;;;;4411334;28;654744;-70
2023/10/10 06:04:36;;;;;;;39.13;20.43;;;7.10;99.90;;;;;;4424310;28;655097;-70
2023/10/10 06:07:24;;;;;;;39.93;20.53;;;7.00;99.90;;;;;;4405597;28;655514;-70
2023/10/10 06:10:16;;;;;;;34.77;20.33;;;7.00;99.90;;;;;;4427614;28;654320;-69
2023/10/10 06:13:03;;;;;;;34.33;18.50;;;7.10;99.90;;;;;;4385671;28;654965;-69
2023/10/10 06:15:51;;;;;;;33.13;18.77;;;7.30;99.90;;;;;;4428953;28;655552;-69
2023/10/10 06:18:41;;;;;;;34.43;18.17;;;7.20;99.90;;;;;;4408468;28;654429;-69
2023/10/10 06:21:30;;;;;;;33.00;18.20;;;7.30;99.90;;;;;;4399790;28;654625;-69
2023/10/10 06:24:18;;;;;;;29.20;17.60;;;7.30;99.90;;;;;;4408232;28;655300;-69
2023/10/10 06:27:08;;;;;;;30.30;17.30;;;7.30;99.90;;;;;;4426248;28;655551;-69
2023/10/10 06:29:58;;;;;;;33.43;17.23;;;7.30;99.90;;;;;;4407999;28;654448;-69
2023/10/10 06:32:46;;;;;;;31.97;17.77;;;7.40;99.90;;;;;;4409658;28;655299;-69
2023/10/10 06:35:37;;;;;;;28.00;16.17;;;7.50;99.90;;;;;;4406470;28;655104;-69
2023/10/10 06:38:26;;;;;;;27.90;15.17;;;7.60;99.90;;;;;;4409411;28;654180;-69
2023/10/10 06:41:17;;;;;;;26.27;15.03;;;7.70;99.90;;;;;;4414152;28;655227;-69
2023/10/10 06:44:05;;;;;;;27.20;15.13;;;7.70;99.90;;;;;;4403878;28;655560;-69
2023/10/10 06:46:57;;;;;;;24.27;15.13;;;7.70;99.90;;;;;;4396716;28;655379;-69
2023/10/10 06:49:53;;;;;;;22.07;13.50;;;7.70;99.90;;;;;;4422824;28;655599;-69
2023/10/10 06:52:43;;;;;;;24.23;14.60;;;7.70;99.90;;;;;;4400508;28;654862;-69
2023/10/10 06:55:37;;;;;;;22.90;14.47;;;7.70;99.90;;;;;;4409365;28;654924;-69
2023/10/10 06:58:24;;;;;;;27.77;15.03;;;7.80;99.90;;;;;;4386348;28;655101;-69
2023/10/10 07:01:12;;;;;;;25.93;14.83;;;8.00;99.90;;;;;;4423988;28;654154;-68
2023/10/10 07:04:04;;;;;;;25.00;13.97;;;8.20;99.90;;;;;;4405368;28;656182;-69
2023/10/10 07:06:53;;;;;;;26.03;14.33;;;8.40;99.90;;;;;;4324325;28;654864;-70
2023/10/10 07:09:42;;;;;;;25.75;14.38;;;8.60;99.90;;;;;;4229203;28;655026;-69
2023/10/10 07:12:31;;;;;;;23.23;14.00;;;8.70;99.90;;;;;;4246943;28;654681;-69
2023/10/10 07:15:21;;;;;;;23.43;13.33;;;9.00;99.90;;;;;;4402534;28;656607;-69
2023/10/10 07:18:15;;;;;;;21.77;13.17;;;9.20;99.90;;;;;;4409420;28;654371;-69
2023/10/10 07:21:04;;;;;;;24.03;13.33;;;9.30;99.90;;;;;;4402213;28;655628;-68
2023/10/10 07:24:02;;;;;;;27.87;14.23;;;9.40;99.90;;;;;;4398758;28;655154;-68
2023/10/10 07:27:04;;;;;;;23.57;14.07;;;9.40;99.90;;;;;;4399199;28;654467;-68
2023/10/10 07:29:59;;;;;;;21.67;13.30;;;9.20;99.90;;;;;;4400991;28;654401;-68
2023/10/10 07:32:48;;;;;;;25.13;14.00;;;9.10;99.90;;;;;;4401205;28;654613;-68
2023/10/10 07:35:36;;;;;;;25.10;12.77;;;9.20;99.90;;;;;;4400701;28;655242;-68
2023/10/10 07:38:27;;;;;;;22.87;12.70;;;9.20;99.90;;;;;;4413189;28;655019;-68
2023/10/10 07:41:21;;;;;;;24.55;14.43;;;9.10;99.90;;;;;;4413992;28;655007;-68
2023/10/10 07:44:08;;;;;;;26.40;14.73;;;9.00;99.90;;;;;;4390169;28;654459;-68
2023/10/10 07:47:19;;;;;;;26.73;14.73;;;8.90;99.90;;;;;;4421752;28;654230;-68
2023/10/10 07:50:08;;;;;;;28.40;16.30;;;9.00;99.90;;;;;;4402093;28;654525;-68
2023/10/10 07:52:56;;;;;;;35.17;16.37;;;9.10;99.90;;;;;;4404604;28;655089;-68
2023/10/10 07:55:53;;;;;;;31.27;16.30;;;9.20;99.90;;;;;;4413060;28;655761;-68
2023/10/10 07:58:49;;;;;;;31.00;16.50;;;9.10;99.90;;;;;;4407754;28;655113;-68
2023/10/10 08:01:38;;;;;;;26.60;16.07;;;9.20;99.90;;;;;;4406406;28;655873;-68
2023/10/10 08:04:27;;;;;;;29.30;16.47;;;9.20;99.90;;;;;;4405679;28;656414;-68
2023/10/10 08:07:18;;;;;;;31.70;16.90;;;9.40;99.90;;;;;;4408634;28;656613;-68
2023/10/10 08:10:29;;;;;;;32.97;17.70;;;9.50;99.90;;;;;;4409495;28;656607;-68
2023/10/10 08:13:16;;;;;;;32.50;16.13;;;9.50;99.90;;;;;;4411070;28;655953;-68
2023/10/10 08:16:04;;;;;;;30.37;17.87;;;9.40;99.90;;;;;;4409996;28;655601;-68
2023/10/10 08:18:53;;;;;;;29.77;16.97;;;9.50;99.90;;;;;;4429116;28;656562;-68
2023/10/10 08:21:48;;;;;;;32.70;17.03;;;9.30;99.90;;;;;;4402976;28;657956;-68
2023/10/10 08:24:36;;;;;;;28.60;16.93;;;9.30;99.90;;;;;;4396397;28;656190;-68
2023/10/10 08:27:23;;;;;;;36.53;20.23;;;9.20;99.90;;;;;;4405276;28;655884;-68
2023/10/10 08:30:13;;;;;;;35.28;17.92;;;9.30;99.90;;;;;;4428758;28;656709;-68
2023/10/10 08:33:01;;;;;;;34.57;18.53;;;9.50;99.90;;;;;;4398027;28;656564;-68
2023/10/10 08:35:48;;;;;;;35.63;19.83;;;9.60;99.90;;;;;;4407880;28;655748;-68
2023/10/10 08:38:42;;;;;;;36.63;19.70;;;9.80;99.90;;;;;;4426294;28;656825;-68
2023/10/10 08:41:30;;;;;;;32.33;17.40;;;9.80;99.90;;;;;;4404128;28;655345;-68
2023/10/10 08:44:18;;;;;;;27.00;16.80;;;9.90;99.90;;;;;;4421866;28;655486;-68
2023/10/10 08:47:06;;;;;;;41.83;17.17;;;9.90;99.90;;;;;;4425666;28;656947;-68
2023/10/10 08:49:53;;;;;;;34.47;16.83;;;9.80;99.90;;;;;;4408238;28;656996;-68
2023/10/10 08:52:41;;;;;;;29.77;16.53;;;10.00;99.90;;;;;;4429796;28;656629;-68
2023/10/10 08:55:34;;;;;;;30.57;16.93;;;10.10;99.90;;;;;;4400219;28;657228;-68
2023/10/10 08:58:22;;;;;;;31.23;16.60;;;10.20;99.90;;;;;;4399243;28;657122;-68
2023/10/10 09:01:09;;;;;;;31.77;17.20;;;10.10;99.90;;;;;;4401550;28;657896;-68
2023/10/10 09:03:57;;;;;;;33.70;16.00;;;10.10;99.90;;;;;;4425539;28;656951;-68
2023/10/10 09:07:00;;;;;;;28.77;16.23;;;10.10;99.90;;;;;;4400188;28;657767;-68
2023/10/10 09:09:55;;;;;;;29.60;15.87;;;10.20;99.90;;;;;;4392076;28;656461;-68
2023/10/10 09:12:55;;;;;;;27.37;15.17;;;10.30;99.90;;;;;;4389985;28;656475;-68
2023/10/10 09:15:54;;;;;;;28.17;15.73;;;10.40;99.90;;;;;;4382764;28;656613;-68
2023/10/10 09:18:42;;;;;;;26.20;15.73;;;10.50;99.90;;;;;;4399966;28;656959;-68
2023/10/10 09:21:30;;;;;;;27.00;15.10;;;10.60;99.90;;;;;;4404555;28;657202;-68
2023/10/10 09:24:28;;;;;;;28.33;14.93;;;10.50;99.90;;;;;;4406162;28;657044;-68
2023/10/10 09:27:22;;;;;;;23.90;14.60;;;10.60;99.90;;;;;;4402633;28;656460;-67
2023/10/10 09:30:15;;;;;;;23.93;14.13;;;10.60;99.90;;;;;;4379404;28;657543;-67
2023/10/10 09:33:13;;;;;;;26.70;14.77;;;10.70;99.90;;;;;;4421105;28;656190;-67
2023/10/10 09:36:08;;;;;;;29.00;16.30;;;10.90;99.90;;;;;;4377577;28;657291;-68
2023/10/10 09:39:08;;;;;;;30.07;16.33;;;10.70;99.90;;;;;;4401032;28;656653;-68
2023/10/10 09:42:07;;;;;;;27.23;15.33;;;10.80;99.90;;;;;;4400094;28;657196;-68
2023/10/10 09:45:27;;;;;;;25.57;15.57;;;11.00;99.90;;;;;;4405590;28;656589;-68
2023/10/10 09:48:27;;;;;;;24.80;14.57;;;10.90;99.90;;;;;;4403999;28;656431;-68
2023/10/10 09:52:47;;;;;;;25.27;14.50;;;10.80;99.90;;;;;;4379726;28;656716;-68
2023/10/10 09:54:39;;;;;;;28.07;14.27;;;10.90;99.90;;;;;;4404397;28;656513;-68
2023/10/10 09:57:26;;;;;;;23.37;14.33;;;10.90;99.90;;;;;;4426637;28;656345;-68
2023/10/10 10:00:14;;;;;;;23.20;13.67;;;10.90;99.90;;;;;;4403740;28;656806;-67
2023/10/10 10:03:25;;;;;;;26.13;13.90;;;11.00;99.90;;;;;;4423667;28;657102;-68
2023/10/10 10:06:38;;;;;;;25.13;14.40;;;11.10;99.90;;;;;;4379364;28;657255;-67
2023/10/10 10:09:56;;;;;;;31.10;15.50;;;11.20;99.90;;;;;;4401596;28;656385;-68
2023/10/10 10:12:51;;;;;;;26.20;13.33;;;11.30;99.90;;;;;;4377943;28;657422;-68
2023/10/10 10:15:49;;;;;;;26.67;13.87;;;11.50;99.90;;;;;;4403576;28;656506;-68
2023/10/10 10:18:45;;;;;;;26.60;14.67;;;11.60;99.90;;;;;;4398588;28;657144;-68
2023/10/10 10:21:51;;;;;;;25.07;12.73;;;11.40;99.90;;;;;;4389431;28;657036;-68
2023/10/10 10:24:52;;;;;;;21.80;13.73;;;11.40;99.90;;;;;;4403373;28;656647;-68
2023/10/10 10:27:41;;;;;;;24.30;13.33;;;11.60;99.90;;;;;;4401912;28;657178;-68
2023/10/10 10:30:47;;;;;;;27.07;14.13;;;11.90;99.90;;;;;;4405098;28;656943;-68
2023/10/10 10:33:35;;;;;;;26.83;12.93;;;12.00;99.90;;;;;;4372108;28;658002;-68
2023/10/10 10:36:27;;;;;;;25.17;13.03;;;11.90;99.90;;;;;;4410413;28;656774;-68
2023/10/10 10:39:26;;;;;;;27.70;12.77;;;11.90;99.90;;;;;;4400829;28;656891;-68
2023/10/10 10:42:15;;;;;;;20.73;11.33;;;11.80;99.90;;;;;;4379768;28;657019;-67
2023/10/10 10:45:24;;;;;;;20.73;11.57;;;11.80;99.90;;;;;;4400755;28;656718;-68
2023/10/10 10:48:29;;;;;;;22.97;13.03;;;12.00;99.90;;;;;;4397294;28;656817;-68
2023/10/10 10:51:25;;;;;;;21.03;11.87;;;11.90;99.90;;;;;;4396850;28;656446;-67
2023/10/10 10:54:35;;;;;;;20.83;12.60;;;11.90;99.90;;;;;;4416567;28;657287;-68
2023/10/10 10:57:28;;;;;;;21.55;12.75;;;11.80;99.90;;;;;;4393907;28;656723;-67
2023/10/10 11:00:27;;;;;;;24.73;13.87;;;11.80;99.90;;;;;;4398995;28;656928;-67
2023/10/10 11:03:15;;;;;;;24.60;13.20;;;11.80;99.90;;;;;;4372521;28;657184;-68
2023/10/10 11:06:06;;;;;;;26.07;13.17;;;11.90;99.90;;;;;;4416897;28;656050;-68
2023/10/10 11:09:06;;;;;;;25.33;12.50;;;11.90;99.90;;;;;;4402419;28;656812;-68
2023/10/10 11:11:58;;;;;;;25.07;12.33;;;11.90;99.90;;;;;;4406786;28;657242;-68
2023/10/10 11:14:47;;;;;;;29.70;12.77;;;11.80;99.90;;;;;;4402592;28;657613;-68
2023/10/10 11:17:39;;;;;;;26.87;13.33;;;11.70;99.90;;;;;;4398764;28;656531;-68
2023/10/10 11:20:55;;;;;;;24.27;12.97;;;11.90;99.90;;;;;;4399589;28;656823;-68
2023/10/10 11:23:42;;;;;;;26.63;13.30;;;11.90;99.90;;;;;;4383011;28;657764;-68
2023/10/10 11:26:35;;;;;;;25.13;13.33;;;11.90;99.90;;;;;;4403737;28;657195;-68
2023/10/10 11:29:27;;;;;;;26.63;13.13;;;11.90;99.90;;;;;;4395646;28;656445;-68
2023/10/10 11:32:23;;;;;;;26.73;13.73;;;11.80;99.90;;;;;;4410446;28;657762;-68
2023/10/10 11:35:22;;;;;;;25.20;13.20;;;11.80;99.90;;;;;;4405530;28;656930;-68
2023/10/10 11:38:15;;;;;;;25.33;13.43;;;11.80;99.90;;;;;;4405019;28;656355;-67
2023/10/10 11:41:08;;;;;;;28.77;13.47;;;11.80;99.90;;;;;;4383779;28;657268;-68
2023/10/10 11:44:01;;;;;;;31.13;14.23;;;11.80;99.90;;;;;;4403303;28;657696;-68
2023/10/10 11:46:56;;;;;;;27.67;14.67;;;11.70;99.90;;;;;;4399104;28;656305;-68
2023/10/10 11:49:44;;;;;;;27.90;13.47;;;11.60;99.90;;;;;;4380319;28;657201;-66
2023/10/10 11:52:32;;;;;;;30.07;14.60;;;11.60;99.90;;;;;;4427978;28;656799;-66
2023/10/10 11:55:20;;;;;;;29.57;14.77;;;11.60;99.90;;;;;;4410592;28;658526;-66
2023/10/10 11:58:08;;;;;;;29.40;14.50;;;11.60;99.90;;;;;;4406592;28;656677;-66
2023/10/10 12:01:04;;;;;;;31.13;14.60;;;11.60;99.90;;;;;;4424986;28;657248;-66
2023/10/10 12:04:04;;;;;;;36.57;14.57;;;11.50;99.90;;;;;;4404405;28;657469;-66
2023/10/10 12:06:55;;;;;;;33.70;15.03;;;11.60;99.90;;;;;;4397733;28;657070;-66
2023/10/10 12:09:45;;;;;;;32.17;14.97;;;11.70;99.90;;;;;;4383434;28;657076;-66
2023/10/10 12:12:32;;;;;;;29.70;15.57;;;11.70;99.90;;;;;;4418367;28;656715;-66
2023/10/10 12:15:22;;;;;;;30.67;15.83;;;11.70;99.90;;;;;;4399539;28;658050;-66
2023/10/10 12:18:10;;;;;;;36.37;15.70;;;11.70;99.90;;;;;;4406584;28;656841;-66
2023/10/10 12:20:58;;;;;;;31.90;15.07;;;11.60;99.90;;;;;;4404270;28;657203;-66
2023/10/10 12:23:47;;;;;;;37.63;15.53;;;11.60;99.90;;;;;;4419903;28;656770;-65
2023/10/10 12:26:39;;;;;;;32.10;15.70;;;11.60;99.90;;;;;;4400479;28;657117;-65
2023/10/10 12:29:29;;;;;;;31.13;15.57;;;11.60;99.90;;;;;;4405188;28;656820;-65
2023/10/10 12:32:18;;;;;;;40.80;16.80;;;11.60;99.90;;;;;;4395282;28;656787;-66
2023/10/10 12:35:10;;;;;;;34.00;15.93;;;11.70;99.90;;;;;;4395381;28;657447;-66
2023/10/10 12:38:01;;;;;;;29.50;15.60;;;11.80;99.90;;;;;;4397661;28;656706;-65
2023/10/10 12:40:50;;;;;;;32.27;15.40;;;11.80;99.90;;;;;;4407097;28;656673;-66
2023/10/10 12:43:38;;;;;;;32.20;15.43;;;11.90;99.90;;;;;;4422879;28;656561;-66
2023/10/10 12:46:25;;;;;;;35.40;15.03;;;11.90;99.90;;;;;;4420010;28;656094;-66
2023/10/10 12:49:13;;;;;;;30.33;14.70;;;12.00;99.90;;;;;;4412167;28;657183;-66
2023/10/10 12:52:01;;;;;;;30.17;14.57;;;12.00;99.90;;;;;;4432757;28;657070;-66
2023/10/10 12:54:57;;;;;;;35.00;16.08;;;11.90;99.90;;;;;;4404183;28;656662;-66
2023/10/10 12:57:46;;;;;;;33.83;15.73;;;11.90;99.90;;;;;;4406665;28;656559;-65
2023/10/10 13:00:34;;;;;;;33.55;15.45;;;11.80;99.90;;;;;;4405469;28;656371;-66
2023/10/10 13:03:23;;;;;;;29.40;15.07;;;11.90;99.90;;;;;;4429999;28;656306;-66
2023/10/10 13:06:10;;;;;;;29.33;15.03;;;12.00;99.90;;;;;;4394745;28;657224;-66
2023/10/10 13:09:03;;;;;;;33.10;16.07;;;12.10;99.90;;;;;;4278756;28;657238;-66
2023/10/10 13:11:50;;;;;;;39.47;15.77;;;12.20;99.90;;;;;;4231691;28;657686;-67
2023/10/10 13:14:46;;;;;;;31.17;14.47;;;12.20;99.90;;;;;;4308535;28;656802;-66
2023/10/10 13:17:50;;;;;;;28.13;12.93;;;12.20;99.90;;;;;;4379602;28;656686;-66
2023/10/10 13:20:38;;;;;;;35.23;14.33;;;12.10;99.90;;;;;;4403217;28;657102;-66
2023/10/10 13:23:25;;;;;;;30.23;14.30;;;12.10;99.90;;;;;;4405422;28;657261;-66
2023/10/10 13:26:13;;;;;;;30.97;14.40;;;12.10;99.90;;;;;;4408292;28;657152;-66
2023/10/10 13:29:02;;;;;;;29.23;14.27;;;12.10;99.90;;;;;;4431419;28;658023;-66
2023/10/10 13:31:50;;;;;;;32.93;14.53;;;12.20;99.90;;;;;;4406387;28;656627;-66
2023/10/10 13:34:38;;;;;;;29.58;13.70;;;12.30;99.90;;;;;;4404494;28;656410;-66
2023/10/10 13:37:25;;;;;;;22.47;12.43;;;12.40;99.90;;;;;;4422245;28;657945;-66
2023/10/10 13:40:22;;;;;;;26.53;13.37;;;12.40;99.90;;;;;;4415962;28;656687;-66
2023/10/10 13:43:09;;;;;;;30.70;12.53;;;12.40;99.90;;;;;;4386932;28;656675;-66
2023/10/10 13:45:57;;;;;;;26.93;12.60;;;12.30;99.90;;;;;;4426771;28;656710;-65
2023/10/10 13:48:46;;;;;;;26.50;12.43;;;12.40;99.90;;;;;;4407174;28;656672;-66
2023/10/10 13:51:39;;;;;;;25.90;12.20;;;12.40;99.90;;;;;;4410096;28;656822;-65
2023/10/10 13:54:26;;;;;;;24.50;12.30;;;12.30;99.90;;;;;;4387723;28;657562;-66
2023/10/10 13:57:14;;;;;;;26.53;14.00;;;12.30;99.90;;;;;;4399433;28;656699;-66
2023/10/10 14:00:18;;;;;;;25.53;12.93;;;12.00;99.90;;;;;;4418754;28;656037;-65
2023/10/10 14:03:06;;;;;;;26.20;13.67;;;12.20;99.90;;;;;;4405599;28;656889;-66
2023/10/10 14:06:03;;;;;;;25.33;12.33;;;12.30;99.90;;;;;;4406224;28;657076;-65
2023/10/10 14:08:50;;;;;;;27.70;11.87;;;12.30;99.90;;;;;;4408196;28;656509;-66
2023/10/10 14:11:38;;;;;;;24.90;12.67;;;12.50;99.90;;;;;;4403695;28;656533;-66
2023/10/10 14:14:26;;;;;;;24.50;12.17;;;12.40;99.90;;;;;;4415772;28;657075;-66
2023/10/10 14:17:13;;;;;;;31.87;13.27;;;12.20;99.90;;;;;;4401027;28;656847;-66
2023/10/10 14:20:00;;;;;;;29.83;14.10;;;12.20;99.90;;;;;;4425717;28;657587;-66
2023/10/10 14:22:50;;;;;;;27.00;13.07;;;12.10;99.90;;;;;;4403803;28;656951;-66
2023/10/10 14:25:38;;;;;;;33.47;15.03;;;12.10;99.90;;;;;;4411164;28;657194;-66
2023/10/10 14:28:28;;;;;;;32.67;15.70;;;12.20;99.90;;;;;;4419374;28;656754;-65
2023/10/10 14:31:17;;;;;;;32.37;16.27;;;12.10;99.90;;;;;;4402539;28;657604;-66
2023/10/10 14:34:05;;;;;;;37.00;16.87;;;12.00;99.90;;;;;;4400598;28;658243;-66
2023/10/10 14:36:54;;;;;;;32.93;15.13;;;12.00;99.90;;;;;;4409497;28;657134;-66
2023/10/10 14:39:45;;;;;;;28.07;14.77;;;12.10;99.90;;;;;;4428586;28;657247;-66
2023/10/10 14:42:32;;;;;;;31.97;17.03;;;12.10;99.90;;;;;;4396057;28;657150;-66
2023/10/10 14:45:24;;;;;;;38.07;17.63;;;12.20;99.90;;;;;;4418286;28;657467;-66
2023/10/10 14:48:14;;;;;;;42.50;18.57;;;12.10;99.90;;;;;;4404033;28;657362;-66
2023/10/10 14:51:05;;;;;;;37.27;16.20;;;12.10;99.90;;;;;;4397354;28;656802;-66
2023/10/10 14:53:52;;;;;;;43.97;18.07;;;12.00;99.90;;;;;;4418816;28;657350;-66
2023/10/10 14:56:45;;;;;;;36.27;16.40;;;12.00;99.90;;;;;;4428738;28;657540;-66
2023/10/10 14:59:33;;;;;;;29.47;14.70;;;12.00;99.90;;;;;;4390159;28;657053;-66
2023/10/10 15:02:20;;;;;;;46.73;19.73;;;11.90;99.90;;;;;;4416298;28;658264;-66
2023/10/10 15:05:11;;;;;;;38.30;17.33;;;11.80;99.90;;;;;;4406989;28;656689;-66
2023/10/10 15:07:58;;;;;;;31.67;15.60;;;11.90;99.90;;;;;;4407512;28;656562;-66
2023/10/10 15:10:45;;;;;;;30.70;15.33;;;11.90;99.90;;;;;;4427032;28;657401;-66
2023/10/10 15:13:35;;;;;;;31.87;16.30;;;11.90;99.90;;;;;;4402338;28;656962;-66
2023/10/10 15:16:23;;;;;;;27.00;14.02;;;11.90;99.90;;;;;;4410423;28;657115;-67
2023/10/10 15:19:10;;;;;;;22.97;13.07;;;11.90;99.90;;;;;;4425772;28;657423;-66
2023/10/10 15:21:58;;;;;;;25.60;13.80;;;11.90;99.90;;;;;;4413024;28;657279;-67
2023/10/10 15:24:49;;;;;;;27.80;13.93;;;11.90;99.90;;;;;;4416819;28;656269;-67
2023/10/10 15:27:40;;;;;;;24.20;12.43;;;11.90;99.90;;;;;;4403494;28;656863;-67
2023/10/10 15:30:29;;;;;;;27.37;13.67;;;11.70;99.90;;;;;;4404543;28;657171;-67
2023/10/10 15:33:17;;;;;;;30.63;14.00;;;11.70;99.90;;;;;;4426540;28;656288;-67
2023/10/10 15:36:06;;;;;;;35.77;17.80;;;11.60;99.90;;;;;;4394849;28;657828;-67
2023/10/10 15:38:53;;;;;;;30.97;14.57;;;11.60;99.90;;;;;;4407848;28;656506;-67
2023/10/10 15:41:42;;;;;;;31.23;14.97;;;11.60;99.90;;;;;;4428565;28;656841;-67
2023/10/10 15:44:30;;;;;;;37.23;16.87;;;11.60;99.90;;;;;;4396947;28;657285;-67
2023/10/10 15:47:21;;;;;;;35.50;17.80;;;11.50;99.90;;;;;;4392675;28;656807;-67
2023/10/10 15:50:09;;;;;;;42.17;20.43;;;11.40;99.90;;;;;;4403691;28;657153;-67
2023/10/10 15:52:56;;;;;;;46.93;23.70;;;11.40;99.90;;;;;;4426132;28;657277;-67
2023/10/10 15:55:43;;;;;;;50.50;22.83;;;11.40;99.90;;;;;;4399402;28;656894;-67
2023/10/10 15:58:35;;;;;;;53.17;23.70;;;11.30;99.90;;;;;;4429801;28;657130;-67
2023/10/10 16:01:27;;;;;;;56.33;19.73;;;11.30;99.90;;;;;;4390510;28;656688;-67
2023/10/10 16:04:19;;;;;;;52.07;23.80;;;11.20;99.90;;;;;;4407753;28;657096;-67
2023/10/10 16:07:06;;;;;;;74.20;33.93;;;11.20;99.90;;;;;;4399718;28;656519;-67
2023/10/10 16:09:53;;;;;;;68.37;32.63;;;11.20;99.90;;;;;;4406774;28;656794;-67
2023/10/10 16:12:42;;;;;;;75.53;38.17;;;11.10;99.90;;;;;;4426039;28;656705;-67
2023/10/10 16:15:33;;;;;;;65.60;29.67;;;11.10;99.90;;;;;;4406937;28;656592;-67
2023/10/10 16:18:20;;;;;;;59.97;28.10;;;11.20;99.90;;;;;;4401205;28;657091;-67